Windy Point, Colorado
Current Conditions -  °F | °C
As of 3:15 PM on Sunday 25 Jan 2015 (Local Time) from KGUC Reporting Station
Clear Clear  
Wind Chill: 21°   Ceiling: Unl
Heat Index: 21°   Visibility: 10mi
Dew Point:   Wind: 3mph
Humidity: 58%   Direction: 100°E
Pressure: 30.4"   Gusts: NA
Location:  38.4566°N, 107.296°W
Report Text: KGUC 252215Z 10003KT 10SM CLR M06/M13 A3040 RMK AO1
Loading
Personal Weather Stations






























Interactive Weather Map New forecast layout! Learn more

10-Day Weather Forecast

Advertisements
Track Severe Weather on mobile